createdAt,value
2018-03-16T00:00:30.076Z,0.00
2018-03-16T00:01:30.079Z,0.00
2018-03-16T00:02:30.090Z,0.00
2018-03-16T00:03:30.096Z,0.00
2018-03-16T00:04:30.105Z,0.00
2018-03-16T00:05:30.117Z,0.00
2018-03-16T00:06:30.122Z,0.00
2018-03-16T00:07:30.138Z,0.00
2018-03-16T00:08:30.138Z,0.00
2018-03-16T00:09:30.149Z,0.00
2018-03-16T00:10:30.155Z,0.00
2018-03-16T00:11:30.164Z,0.00
2018-03-16T00:12:30.164Z,0.00
2018-03-16T00:13:30.177Z,0.00
2018-03-16T00:14:30.182Z,0.00
2018-03-16T00:15:30.191Z,0.00
2018-03-16T00:16:30.737Z,0.00
2018-03-16T00:17:30.214Z,0.00
2018-03-16T00:18:30.213Z,0.00
2018-03-16T00:19:30.220Z,0.00
2018-03-16T00:20:30.229Z,0.00
2018-03-16T00:21:30.235Z,0.00
2018-03-16T00:22:30.245Z,0.00
2018-03-16T00:23:30.257Z,0.00
2018-03-16T00:24:30.259Z,0.00
2018-03-16T00:25:30.266Z,0.00
2018-03-16T00:26:30.279Z,0.00
2018-03-16T00:27:30.284Z,0.00
2018-03-16T00:28:30.291Z,0.00
2018-03-16T00:29:30.306Z,0.00
2018-03-16T00:30:30.308Z,0.00
2018-03-16T00:31:30.315Z,0.00
2018-03-16T00:32:30.320Z,0.00
2018-03-16T00:33:30.334Z,0.00
2018-03-16T00:34:30.339Z,0.00
2018-03-16T00:35:30.348Z,0.00
2018-03-16T00:36:30.361Z,0.00
2018-03-16T00:37:30.358Z,0.00
2018-03-16T00:38:30.371Z,0.00
2018-03-16T00:39:30.374Z,0.00
2018-03-16T00:40:30.387Z,0.00
2018-03-16T00:41:30.398Z,0.00
2018-03-16T00:42:30.427Z,0.00
2018-03-16T00:43:30.406Z,0.00
2018-03-16T00:44:30.418Z,0.00
2018-03-16T00:45:30.426Z,0.00
2018-03-16T00:46:30.434Z,0.00
2018-03-16T00:47:30.439Z,0.00
2018-03-16T00:48:30.456Z,0.00
2018-03-16T00:49:30.453Z,0.00
2018-03-16T00:50:30.455Z,0.00
2018-03-16T00:51:30.470Z,0.00
2018-03-16T00:52:30.472Z,0.00
2018-03-16T00:53:30.483Z,0.00
2018-03-16T00:54:30.497Z,0.00
2018-03-16T00:55:30.501Z,0.00
2018-03-16T00:56:30.504Z,0.00
2018-03-16T00:57:30.514Z,0.00
2018-03-16T00:58:30.518Z,0.00
2018-03-16T00:59:30.526Z,0.00
2018-03-16T01:00:30.535Z,0.00
2018-03-16T01:01:30.553Z,0.00
2018-03-16T01:02:30.551Z,0.00
2018-03-16T01:03:30.558Z,0.00
2018-03-16T01:04:30.566Z,0.00
2018-03-16T01:05:30.577Z,0.00
2018-03-16T01:06:30.590Z,0.00
2018-03-16T01:07:30.600Z,0.00
2018-03-16T01:08:30.599Z,0.00
2018-03-16T01:09:30.602Z,0.00
2018-03-16T01:10:30.610Z,0.00
2018-03-16T01:11:30.624Z,0.00
2018-03-16T01:12:30.625Z,0.00
2018-03-16T01:13:30.639Z,0.00
2018-03-16T01:14:30.686Z,0.00
2018-03-16T01:15:30.648Z,0.00
2018-03-16T01:16:30.655Z,0.00
2018-03-16T01:17:30.662Z,0.00
2018-03-16T01:18:30.669Z,0.00
2018-03-16T01:19:30.685Z,0.00
2018-03-16T01:20:30.685Z,0.00
2018-03-16T01:21:30.696Z,0.00
2018-03-16T01:22:30.705Z,0.00
2018-03-16T01:23:30.713Z,0.00
2018-03-16T01:24:30.718Z,0.00
2018-03-16T01:25:30.724Z,0.00
2018-03-16T01:26:30.731Z,0.00
2018-03-16T01:27:30.738Z,0.00
2018-03-16T01:28:30.744Z,0.00
2018-03-16T01:29:30.757Z,0.00
2018-03-16T01:30:30.755Z,0.00
2018-03-16T01:31:30.768Z,0.00
2018-03-16T01:32:30.778Z,0.00
2018-03-16T01:33:30.782Z,0.00
2018-03-16T01:34:30.801Z,0.00
2018-03-16T01:35:30.803Z,0.00
2018-03-16T01:36:30.802Z,0.00
2018-03-16T01:37:30.826Z,0.00
2018-03-16T01:38:30.819Z,0.00
2018-03-16T01:39:30.833Z,0.00
2018-03-16T01:40:30.835Z,0.00
2018-03-16T01:41:30.840Z,0.00
2018-03-16T01:42:30.856Z,0.00
2018-03-16T01:43:30.863Z,0.00
2018-03-16T01:44:30.859Z,0.00
2018-03-16T01:45:30.873Z,0.00
2018-03-16T01:46:30.884Z,0.00
2018-03-16T01:47:30.889Z,0.00
2018-03-16T01:48:30.891Z,0.00
2018-03-16T01:49:30.896Z,0.00
2018-03-16T01:50:30.914Z,0.00
2018-03-16T01:51:30.913Z,0.00
2018-03-16T01:52:30.926Z,0.00
2018-03-16T01:53:30.931Z,0.00
2018-03-16T01:54:30.938Z,0.00
2018-03-16T01:55:30.943Z,0.00
2018-03-16T01:56:30.951Z,0.00
2018-03-16T01:57:30.955Z,0.00
2018-03-16T01:58:30.975Z,0.00
2018-03-16T01:59:30.972Z,0.00
2018-03-16T02:00:30.982Z,0.00
2018-03-16T02:01:30.986Z,0.00
2018-03-16T02:02:30.989Z,0.00
2018-03-16T02:03:30.998Z,0.00
2018-03-16T02:04:31.014Z,0.00
2018-03-16T02:05:31.015Z,0.00
2018-03-16T02:06:31.022Z,0.00
2018-03-16T02:07:31.032Z,0.00
2018-03-16T02:08:31.032Z,0.00
2018-03-16T02:09:31.044Z,0.00
2018-03-16T02:10:31.059Z,0.00
2018-03-16T02:11:31.054Z,0.00
2018-03-16T02:12:31.063Z,0.00
2018-03-16T02:13:31.071Z,0.00
2018-03-16T02:14:31.074Z,0.00
2018-03-16T02:15:31.089Z,0.00
2018-03-16T02:16:31.098Z,0.00
2018-03-16T02:17:31.098Z,0.00
2018-03-16T02:18:31.107Z,0.00
2018-03-16T02:19:31.113Z,0.00
2018-03-16T02:20:31.117Z,0.00
2018-03-16T02:21:31.125Z,0.00
2018-03-16T02:22:31.143Z,0.00
2018-03-16T02:23:31.140Z,0.00
2018-03-16T02:24:31.147Z,0.00
2018-03-16T02:25:31.150Z,0.00
2018-03-16T02:26:31.161Z,0.00
2018-03-16T02:27:31.174Z,0.00
2018-03-16T02:28:31.175Z,0.00
2018-03-16T02:29:31.193Z,0.00
2018-03-16T02:30:31.191Z,0.00
2018-03-16T02:31:31.194Z,0.00
2018-03-16T02:32:31.215Z,0.00
2018-03-16T02:33:31.217Z,0.00
2018-03-16T02:34:31.214Z,0.00
2018-03-16T02:35:31.224Z,0.00
2018-03-16T02:36:31.237Z,0.00
2018-03-16T02:37:31.247Z,0.00
2018-03-16T02:38:31.244Z,0.00
2018-03-16T02:39:31.249Z,0.00
2018-03-16T02:40:31.260Z,0.00
2018-03-16T02:41:31.272Z,0.00
2018-03-16T02:42:31.274Z,0.00
2018-03-16T02:43:31.291Z,0.00
2018-03-16T02:44:31.287Z,0.00
2018-03-16T02:45:31.290Z,0.00
2018-03-16T02:46:31.300Z,0.00
2018-03-16T02:47:31.305Z,0.00
2018-03-16T02:48:31.309Z,0.00
2018-03-16T02:49:31.318Z,0.00
2018-03-16T02:50:31.328Z,0.00
2018-03-16T02:51:31.335Z,0.00
2018-03-16T02:52:31.339Z,0.00
2018-03-16T02:53:31.343Z,0.00
2018-03-16T02:54:31.352Z,0.00
2018-03-16T02:55:31.361Z,0.00
2018-03-16T02:56:31.389Z,0.00
2018-03-16T02:57:31.372Z,0.00
2018-03-16T02:58:31.385Z,0.00
2018-03-16T02:59:31.386Z,0.00
2018-03-16T03:00:31.394Z,0.00
2018-03-16T03:01:31.398Z,0.00
2018-03-16T03:02:31.414Z,0.00
2018-03-16T03:03:31.411Z,0.00
2018-03-16T03:04:31.419Z,0.00
2018-03-16T03:05:31.426Z,0.00
2018-03-16T03:06:31.434Z,0.00
2018-03-16T03:07:31.435Z,0.00
2018-03-16T03:08:31.465Z,0.00
2018-03-16T03:09:31.466Z,0.00
2018-03-16T03:10:31.458Z,0.00
2018-03-16T03:11:31.465Z,0.00
2018-03-16T03:12:31.477Z,0.00
2018-03-16T03:13:31.480Z,0.00
2018-03-16T03:14:31.492Z,0.00
2018-03-16T03:15:31.494Z,0.00
2018-03-16T03:16:31.503Z,0.00
2018-03-16T03:17:31.503Z,0.00
2018-03-16T03:18:31.512Z,0.00
2018-03-16T03:19:31.531Z,0.00
2018-03-16T03:20:31.533Z,0.00
2018-03-16T03:21:31.533Z,0.00
2018-03-16T03:22:31.543Z,0.00
2018-03-16T03:23:31.546Z,0.00
2018-03-16T03:24:31.553Z,0.00
2018-03-16T03:25:31.560Z,0.00
2018-03-16T03:26:31.578Z,0.00
2018-03-16T03:27:31.576Z,0.00
2018-03-16T03:28:31.590Z,0.00
2018-03-16T03:29:31.586Z,0.00
2018-03-16T03:30:31.591Z,0.00
2018-03-16T03:31:31.597Z,0.00
2018-03-16T03:32:31.618Z,0.00
2018-03-16T03:33:31.615Z,0.00
2018-03-16T03:34:31.619Z,0.00
2018-03-16T03:35:31.622Z,0.00
2018-03-16T03:36:31.654Z,0.00
2018-03-16T03:37:31.636Z,0.00
2018-03-16T03:38:31.735Z,0.00
2018-03-16T03:39:31.654Z,0.00
2018-03-16T03:40:31.663Z,0.00
2018-03-16T03:41:31.663Z,0.00
2018-03-16T03:42:31.672Z,0.00
2018-03-16T03:43:31.678Z,0.00
2018-03-16T03:44:31.688Z,0.00
2018-03-16T03:45:31.694Z,0.00
2018-03-16T03:46:31.694Z,0.00
2018-03-16T03:47:31.711Z,0.00
2018-03-16T03:48:31.707Z,0.00
2018-03-16T03:49:31.716Z,0.00
2018-03-16T03:50:31.734Z,0.00
2018-03-16T03:51:31.730Z,0.00
2018-03-16T03:52:31.733Z,0.00
2018-03-16T03:53:31.739Z,0.00
2018-03-16T03:54:31.751Z,0.00
2018-03-16T03:55:31.756Z,0.00
2018-03-16T03:56:31.759Z,0.00
2018-03-16T03:57:31.765Z,0.00
2018-03-16T03:58:31.769Z,0.00
2018-03-16T03:59:31.779Z,0.00
2018-03-16T04:00:31.784Z,0.00
2018-03-16T04:01:31.799Z,0.00
2018-03-16T04:02:31.798Z,0.00
2018-03-16T04:03:31.806Z,0.00
2018-03-16T04:04:31.810Z,0.00
2018-03-16T04:05:31.819Z,0.00
2018-03-16T04:06:31.826Z,0.00
2018-03-16T04:07:31.836Z,0.00
2018-03-16T04:08:31.839Z,0.00
2018-03-16T04:09:31.846Z,0.00
2018-03-16T04:10:31.850Z,0.00
2018-03-16T04:11:31.870Z,0.00
2018-03-16T04:12:31.862Z,0.00
2018-03-16T04:13:31.878Z,0.00
2018-03-16T04:14:31.875Z,0.00
2018-03-16T04:15:31.881Z,0.00
2018-03-16T04:16:31.888Z,0.00
2018-03-16T04:17:31.894Z,0.00
2018-03-16T04:18:31.902Z,0.00
2018-03-16T04:19:31.917Z,0.00
2018-03-16T04:20:31.912Z,0.00
2018-03-16T04:21:31.915Z,0.00
2018-03-16T04:22:31.929Z,0.00
2018-03-16T04:23:31.947Z,0.00
2018-03-16T04:24:31.949Z,0.00
2018-03-16T04:25:31.960Z,0.00
2018-03-16T04:26:31.963Z,0.00
2018-03-16T04:27:31.964Z,0.00
2018-03-16T04:28:31.978Z,0.00
2018-03-16T04:29:31.974Z,0.00
2018-03-16T04:30:31.976Z,0.00
2018-03-16T04:31:32.002Z,0.00
2018-03-16T04:32:31.990Z,0.00
2018-03-16T04:33:31.996Z,0.00
2018-03-16T04:34:32.001Z,0.00
2018-03-16T04:35:32.014Z,0.00
2018-03-16T04:36:32.023Z,0.00
2018-03-16T04:37:32.037Z,0.00
2018-03-16T04:38:32.027Z,0.00
2018-03-16T04:39:32.032Z,0.00
2018-03-16T04:40:32.041Z,0.00
2018-03-16T04:41:32.046Z,0.00
2018-03-16T04:42:32.057Z,0.00
2018-03-16T04:43:32.137Z,0.00
2018-03-16T04:44:32.074Z,0.00
2018-03-16T04:45:32.072Z,0.00
2018-03-16T04:46:32.085Z,0.00
2018-03-16T04:47:32.087Z,0.00
2018-03-16T04:48:32.093Z,0.00
2018-03-16T04:49:32.104Z,0.00
2018-03-16T04:50:32.112Z,0.00
2018-03-16T04:51:32.108Z,0.00
2018-03-16T04:52:32.119Z,0.00
2018-03-16T04:53:32.128Z,0.00
2018-03-16T04:54:32.129Z,0.00
2018-03-16T04:55:32.135Z,0.00
2018-03-16T04:56:32.151Z,0.00
2018-03-16T04:57:32.150Z,0.00
2018-03-16T04:58:32.151Z,0.00
2018-03-16T04:59:32.159Z,0.00
2018-03-16T05:00:32.165Z,0.00
2018-03-16T05:01:32.171Z,0.00
2018-03-16T05:02:32.185Z,0.00
2018-03-16T05:03:32.190Z,0.00
2018-03-16T05:04:32.193Z,0.00
2018-03-16T05:05:32.200Z,0.00
2018-03-16T05:06:32.202Z,0.00
2018-03-16T05:07:32.214Z,0.00
2018-03-16T05:08:32.218Z,0.00
2018-03-16T05:09:32.229Z,0.00
2018-03-16T05:10:32.230Z,0.00
2018-03-16T05:11:32.234Z,0.00
2018-03-16T05:12:32.246Z,0.00
2018-03-16T05:13:32.248Z,0.00
2018-03-16T05:14:32.252Z,0.00
2018-03-16T05:15:32.266Z,0.00
2018-03-16T05:16:32.264Z,0.00
2018-03-16T05:17:32.278Z,0.00
2018-03-16T05:18:32.275Z,0.00
2018-03-16T05:19:32.291Z,0.00
2018-03-16T05:20:32.288Z,0.00
2018-03-16T05:21:32.305Z,0.00
2018-03-16T05:22:32.339Z,0.00
2018-03-16T05:23:32.325Z,0.00
2018-03-16T05:24:32.315Z,0.00
2018-03-16T05:25:32.316Z,0.00
2018-03-16T05:26:32.324Z,0.00
2018-03-16T05:27:32.345Z,0.00
2018-03-16T05:28:32.344Z,0.00
2018-03-16T05:29:32.344Z,0.00
2018-03-16T05:30:32.350Z,0.00
2018-03-16T05:31:32.367Z,5.63
2018-03-16T05:32:32.364Z,5.63
2018-03-16T05:33:32.380Z,5.63
2018-03-16T05:34:32.376Z,5.63
2018-03-16T05:35:32.379Z,5.63
2018-03-16T05:36:32.401Z,5.63
2018-03-16T05:37:32.401Z,5.63
2018-03-16T05:38:32.401Z,5.63
2018-03-16T05:39:32.408Z,11.25
2018-03-16T05:40:32.444Z,11.25
2018-03-16T05:41:32.419Z,11.25
2018-03-16T05:42:32.426Z,11.25
2018-03-16T05:43:32.443Z,11.25
2018-03-16T05:44:32.433Z,11.25
2018-03-16T05:45:32.446Z,16.88
2018-03-16T05:46:32.447Z,16.88
2018-03-16T05:47:32.458Z,16.88
2018-03-16T05:48:32.458Z,16.88
2018-03-16T05:49:32.474Z,16.88
2018-03-16T05:50:32.465Z,22.50
2018-03-16T05:51:32.494Z,22.50
2018-03-16T05:52:32.479Z,22.50
2018-03-16T05:53:32.483Z,22.50
2018-03-16T05:54:32.489Z,22.50
2018-03-16T05:55:32.498Z,22.50
2018-03-16T05:56:32.520Z,22.50
2018-03-16T05:57:32.510Z,28.13
2018-03-16T05:58:32.516Z,28.13
2018-03-16T05:59:32.519Z,28.13
2018-03-16T06:00:32.529Z,28.13
2018-03-16T06:01:32.532Z,33.75
2018-03-16T06:02:32.538Z,33.75
2018-03-16T06:03:32.543Z,33.75
2018-03-16T06:04:32.550Z,33.75
2018-03-16T06:05:32.566Z,39.38
2018-03-16T06:06:32.579Z,39.38
2018-03-16T06:07:32.563Z,39.38
2018-03-16T06:08:32.574Z,45.00
2018-03-16T06:09:32.596Z,45.00
2018-03-16T06:10:32.584Z,45.00
2018-03-16T06:11:32.635Z,45.00
2018-03-16T06:12:32.595Z,45.00
2018-03-16T06:13:32.629Z,45.00
2018-03-16T06:14:32.609Z,50.63
2018-03-16T06:15:32.618Z,50.63
2018-03-16T06:16:32.624Z,50.63
2018-03-16T06:17:32.625Z,50.63
2018-03-16T06:18:32.629Z,50.63
2018-03-16T06:19:32.643Z,50.63
2018-03-16T06:20:32.642Z,50.63
2018-03-16T06:21:32.656Z,56.25
2018-03-16T06:22:32.661Z,56.25
2018-03-16T06:23:32.662Z,56.25
2018-03-16T06:24:32.664Z,56.25
2018-03-16T06:25:32.677Z,56.25
2018-03-16T06:26:32.680Z,56.25
2018-03-16T06:27:32.678Z,61.88
2018-03-16T06:28:32.691Z,61.88
2018-03-16T06:29:32.704Z,61.88
2018-03-16T06:30:32.710Z,61.88
2018-03-16T06:31:32.740Z,61.88
2018-03-16T06:32:32.718Z,61.88
2018-03-16T06:33:32.737Z,61.88
2018-03-16T06:34:32.725Z,67.50
2018-03-16T06:35:32.743Z,67.50
2018-03-16T06:36:32.736Z,67.50
2018-03-16T06:37:32.753Z,67.50
2018-03-16T06:38:32.753Z,67.50
2018-03-16T06:39:32.767Z,73.13
2018-03-16T06:40:32.782Z,73.13
2018-03-16T06:41:32.770Z,73.13
2018-03-16T06:42:32.771Z,78.75
2018-03-16T06:43:32.784Z,78.75
2018-03-16T06:44:32.802Z,73.13
2018-03-16T06:45:32.917Z,78.75
2018-03-16T06:46:32.819Z,84.38
2018-03-16T06:47:32.807Z,95.63
2018-03-16T06:48:32.811Z,101.25
2018-03-16T06:49:32.817Z,112.50
2018-03-16T06:50:32.823Z,118.13
2018-03-16T06:51:32.840Z,129.38
2018-03-16T06:52:32.839Z,135.00
2018-03-16T06:53:32.851Z,129.38
2018-03-16T06:54:32.851Z,135.00
2018-03-16T06:55:32.857Z,135.00
2018-03-16T06:56:32.865Z,135.00
2018-03-16T06:57:32.868Z,112.50
2018-03-16T06:58:32.886Z,106.88
2018-03-16T06:59:32.877Z,106.88
2018-03-16T07:00:32.885Z,106.88
2018-03-16T07:01:32.891Z,106.88
2018-03-16T07:02:32.911Z,106.88
2018-03-16T07:03:32.903Z,106.88
2018-03-16T07:04:32.918Z,106.88
2018-03-16T07:05:32.918Z,106.88
2018-03-16T07:06:32.925Z,101.25
2018-03-16T07:07:32.930Z,106.88
2018-03-16T07:08:32.993Z,106.88
2018-03-16T07:09:32.946Z,106.88
2018-03-16T07:10:32.971Z,106.88
2018-03-16T07:11:32.959Z,95.63
2018-03-16T07:12:32.966Z,90.00
2018-03-16T07:13:32.975Z,90.00
2018-03-16T07:14:32.982Z,95.63
2018-03-16T07:15:32.985Z,101.25
2018-03-16T07:16:32.997Z,106.88
2018-03-16T07:17:33.081Z,106.88
2018-03-16T07:18:33.017Z,106.88
2018-03-16T07:19:33.019Z,112.50
2018-03-16T07:20:33.022Z,112.50
2018-03-16T07:21:33.035Z,112.50
2018-03-16T07:22:33.046Z,112.50
2018-03-16T07:23:33.050Z,118.13
2018-03-16T07:24:33.074Z,123.75
2018-03-16T07:25:33.063Z,118.13
2018-03-16T07:26:33.065Z,112.50
2018-03-16T07:27:33.077Z,112.50
2018-03-16T07:28:33.083Z,112.50
2018-03-16T07:29:33.116Z,112.50
2018-03-16T07:30:33.107Z,112.50
2018-03-16T07:31:33.103Z,112.50
2018-03-16T07:32:33.114Z,112.50
2018-03-16T07:33:33.115Z,112.50
2018-03-16T07:34:33.123Z,112.50
2018-03-16T07:35:33.129Z,112.50
2018-03-16T07:36:33.154Z,112.50
2018-03-16T07:37:33.148Z,112.50
2018-03-16T07:38:33.152Z,123.75
2018-03-16T07:39:33.173Z,129.38
2018-03-16T07:40:33.167Z,135.00
2018-03-16T07:41:33.173Z,140.63
2018-03-16T07:42:33.192Z,140.63
2018-03-16T07:43:33.190Z,146.25
2018-03-16T07:44:33.194Z,151.88
2018-03-16T07:45:33.202Z,157.50
2018-03-16T07:46:33.209Z,151.88
2018-03-16T07:47:33.225Z,157.50
2018-03-16T07:48:33.236Z,146.25
2018-03-16T07:49:33.251Z,129.38
2018-03-16T07:50:33.238Z,129.38
2018-03-16T07:51:33.246Z,135.00
2018-03-16T07:52:33.253Z,146.25
2018-03-16T07:53:33.260Z,151.88
2018-03-16T07:54:33.284Z,174.38
2018-03-16T07:55:33.281Z,202.50
2018-03-16T07:56:33.283Z,219.38
2018-03-16T07:57:33.290Z,247.50
2018-03-16T07:58:33.297Z,247.50
2018-03-16T07:59:33.310Z,247.50
2018-03-16T08:00:33.322Z,253.13
2018-03-16T08:01:33.326Z,236.25
2018-03-16T08:02:33.338Z,213.75
2018-03-16T08:03:33.336Z,208.13
2018-03-16T08:04:33.342Z,230.63
2018-03-16T08:05:33.350Z,275.63
2018-03-16T08:06:33.358Z,298.13
2018-03-16T08:07:33.366Z,320.63
2018-03-16T08:08:33.380Z,309.38
2018-03-16T08:09:33.382Z,292.50
2018-03-16T08:10:33.392Z,275.63
2018-03-16T08:11:33.398Z,225.00
2018-03-16T08:12:33.403Z,180.00
2018-03-16T08:13:33.413Z,157.50
2018-03-16T08:14:33.417Z,157.50
2018-03-16T08:15:33.424Z,151.88
2018-03-16T08:16:33.433Z,146.25
2018-03-16T08:17:33.449Z,140.63
2018-03-16T08:18:33.448Z,140.63
2018-03-16T08:19:33.459Z,151.88
2018-03-16T08:20:33.468Z,185.63
2018-03-16T08:21:33.477Z,196.88
2018-03-16T08:22:33.493Z,185.63
2018-03-16T08:23:33.489Z,191.25
2018-03-16T08:24:33.501Z,191.25
2018-03-16T08:25:33.512Z,191.25
2018-03-16T08:26:33.517Z,185.63
2018-03-16T08:27:33.519Z,168.75
2018-03-16T08:28:33.528Z,157.50
2018-03-16T08:29:33.560Z,157.50
2018-03-16T08:30:33.550Z,157.50
2018-03-16T08:31:33.557Z,157.50
2018-03-16T08:32:33.562Z,163.13
2018-03-16T08:33:33.571Z,174.38
2018-03-16T08:34:33.577Z,180.00
2018-03-16T08:35:33.584Z,174.38
2018-03-16T08:36:33.592Z,168.75
2018-03-16T08:37:33.608Z,168.75
2018-03-16T08:38:33.607Z,174.38
2018-03-16T08:39:33.613Z,180.00
2018-03-16T08:40:33.622Z,185.63
2018-03-16T08:41:33.637Z,196.88
2018-03-16T08:42:33.638Z,202.50
2018-03-16T08:43:33.653Z,213.75
2018-03-16T08:44:33.652Z,225.00
2018-03-16T08:45:33.670Z,241.88
2018-03-16T08:46:33.668Z,264.38
2018-03-16T08:47:33.679Z,286.88
2018-03-16T08:48:33.686Z,298.13
2018-03-16T08:49:33.708Z,315.00
2018-03-16T08:50:33.705Z,343.13
2018-03-16T08:51:33.712Z,354.38
2018-03-16T08:52:33.717Z,382.50
2018-03-16T08:53:33.726Z,393.75
2018-03-16T08:54:33.747Z,376.88
2018-03-16T08:55:33.746Z,365.63
2018-03-16T08:56:33.751Z,348.75
2018-03-16T08:57:33.761Z,331.88
2018-03-16T08:58:33.768Z,303.75
2018-03-16T08:59:33.777Z,275.63
2018-03-16T09:00:33.786Z,247.50
2018-03-16T09:01:33.803Z,230.63
2018-03-16T09:02:33.809Z,225.00
2018-03-16T09:03:33.808Z,230.63
2018-03-16T09:04:33.816Z,247.50
2018-03-16T09:05:33.824Z,270.00
2018-03-16T09:06:33.842Z,286.88
2018-03-16T09:07:33.842Z,303.75
2018-03-16T09:08:33.848Z,309.38
2018-03-16T09:09:33.859Z,298.13
2018-03-16T09:10:33.873Z,298.13
2018-03-16T09:11:33.875Z,298.13
2018-03-16T09:12:33.953Z,298.13
2018-03-16T09:13:33.889Z,286.88
2018-03-16T09:14:33.903Z,174.38
2018-03-16T09:15:33.908Z,286.88
2018-03-16T09:16:33.922Z,292.50
2018-03-16T09:17:33.926Z,292.50
2018-03-16T09:18:33.936Z,292.50
2018-03-16T09:19:33.952Z,292.50
2018-03-16T09:20:33.949Z,303.75
2018-03-16T09:21:33.970Z,320.63
2018-03-16T09:22:33.967Z,315.00
2018-03-16T09:23:33.975Z,298.13
2018-03-16T09:24:33.995Z,298.13
2018-03-16T09:25:34.047Z,309.38
2018-03-16T09:26:34.000Z,326.25
2018-03-16T09:27:34.009Z,360.00
2018-03-16T09:28:34.019Z,354.38
2018-03-16T09:29:34.029Z,326.25
2018-03-16T09:30:34.038Z,281.25
2018-03-16T09:31:34.054Z,264.38
2018-03-16T09:32:34.053Z,241.88
2018-03-16T09:33:34.062Z,258.75
2018-03-16T09:34:34.067Z,309.38
2018-03-16T09:35:34.090Z,365.63
2018-03-16T09:36:34.090Z,393.75
2018-03-16T09:37:34.100Z,393.75
2018-03-16T09:38:34.103Z,382.50
2018-03-16T09:39:34.112Z,371.25
2018-03-16T09:40:34.139Z,354.38
2018-03-16T09:41:34.130Z,320.63
2018-03-16T09:42:34.138Z,303.75
2018-03-16T09:43:34.152Z,298.13
2018-03-16T09:44:34.158Z,286.88
2018-03-16T09:45:34.170Z,303.75
2018-03-16T09:46:34.171Z,320.63
2018-03-16T09:47:34.185Z,315.00
2018-03-16T09:48:34.190Z,326.25
2018-03-16T09:49:34.495Z,337.50
2018-03-16T09:50:34.211Z,337.50
2018-03-16T09:51:34.217Z,331.88
2018-03-16T09:52:34.227Z,343.13
2018-03-16T09:53:34.235Z,337.50
2018-03-16T09:54:34.252Z,343.13
2018-03-16T09:55:34.252Z,360.00
2018-03-16T09:56:34.268Z,376.88
2018-03-16T09:57:34.300Z,382.50
2018-03-16T09:58:34.284Z,382.50
2018-03-16T09:59:34.292Z,405.00
2018-03-16T10:00:34.297Z,433.13
2018-03-16T10:01:34.307Z,438.75
2018-03-16T10:02:34.315Z,438.75
2018-03-16T10:03:34.329Z,427.50
2018-03-16T10:04:34.336Z,427.50
2018-03-16T10:05:34.340Z,421.88
2018-03-16T10:06:34.352Z,427.50
2018-03-16T10:07:34.362Z,444.38
2018-03-16T10:08:34.366Z,455.63
2018-03-16T10:09:34.397Z,489.38
2018-03-16T10:10:34.396Z,500.63
2018-03-16T10:11:34.406Z,472.50
2018-03-16T10:12:34.404Z,455.63
2018-03-16T10:13:34.415Z,444.38
2018-03-16T10:14:34.422Z,455.63
2018-03-16T10:15:34.440Z,450.00
2018-03-16T10:16:34.441Z,455.63
2018-03-16T10:17:34.450Z,466.88
2018-03-16T10:18:34.458Z,500.63
2018-03-16T10:19:34.467Z,495.00
2018-03-16T10:20:34.477Z,489.38
2018-03-16T10:21:34.497Z,511.88
2018-03-16T10:22:34.496Z,517.50
2018-03-16T10:23:34.506Z,511.88
2018-03-16T10:24:34.517Z,466.88
2018-03-16T10:25:34.533Z,466.88
2018-03-16T10:26:34.533Z,511.88
2018-03-16T10:27:34.554Z,568.13
2018-03-16T10:28:34.570Z,590.63
2018-03-16T10:29:34.563Z,607.50
2018-03-16T10:30:34.583Z,562.50
2018-03-16T10:31:34.582Z,506.25
2018-03-16T10:32:34.592Z,461.25
2018-03-16T10:33:34.603Z,444.38
2018-03-16T10:34:34.614Z,478.13
2018-03-16T10:35:34.634Z,511.88
2018-03-16T10:36:34.635Z,556.88
2018-03-16T10:37:34.640Z,562.50
2018-03-16T10:38:34.653Z,551.25
2018-03-16T10:39:34.660Z,551.25
2018-03-16T10:40:34.671Z,472.50
2018-03-16T10:41:34.690Z,472.50
2018-03-16T10:42:34.693Z,500.63
2018-03-16T10:43:34.702Z,483.75
2018-03-16T10:44:34.713Z,461.25
2018-03-16T10:45:34.722Z,483.75
2018-03-16T10:46:34.734Z,523.13
2018-03-16T10:47:34.746Z,534.38
2018-03-16T10:48:34.752Z,534.38
2018-03-16T10:49:34.763Z,534.38
2018-03-16T10:50:34.775Z,641.25
2018-03-16T10:51:34.783Z,708.75
2018-03-16T10:52:34.795Z,838.13
2018-03-16T10:53:34.812Z,736.88
2018-03-16T10:54:34.821Z,826.88
2018-03-16T10:55:34.829Z,601.88
2018-03-16T10:56:34.838Z,506.25
2018-03-16T10:57:34.845Z,556.88
2018-03-16T10:58:34.858Z,787.50
2018-03-16T10:59:34.868Z,905.63
2018-03-16T11:00:34.886Z,669.38
2018-03-16T11:01:34.893Z,1456.88
2018-03-16T11:02:34.942Z,1333.13
2018-03-16T11:03:34.911Z,686.25
2018-03-16T11:04:34.922Z,1141.88
2018-03-16T11:05:34.933Z,776.25
2018-03-16T11:06:34.944Z,691.88
2018-03-16T11:07:34.957Z,618.75
2018-03-16T11:08:34.970Z,624.38
2018-03-16T11:09:34.979Z,691.88
2018-03-16T11:10:34.993Z,725.63
2018-03-16T11:11:35.001Z,663.75
2018-03-16T11:12:35.012Z,658.13
2018-03-16T11:13:35.026Z,579.38
2018-03-16T11:14:35.042Z,568.13
2018-03-16T11:15:35.058Z,613.13
2018-03-16T11:16:35.057Z,573.75
2018-03-16T11:17:35.069Z,618.75
2018-03-16T11:18:35.080Z,590.63
2018-03-16T11:19:35.096Z,562.50
2018-03-16T11:20:35.110Z,545.63
2018-03-16T11:21:35.115Z,562.50
2018-03-16T11:22:35.128Z,551.25
2018-03-16T11:23:35.140Z,534.38
2018-03-16T11:24:35.148Z,562.50
2018-03-16T11:25:35.168Z,450.00
2018-03-16T11:26:35.187Z,410.63
2018-03-16T11:27:35.184Z,455.63
2018-03-16T11:28:35.203Z,511.88
2018-03-16T11:29:35.206Z,500.63
2018-03-16T11:30:35.216Z,579.38
2018-03-16T11:31:35.228Z,523.13
2018-03-16T11:32:35.245Z,500.63
2018-03-16T11:33:35.252Z,540.00
2018-03-16T11:34:35.270Z,540.00
2018-03-16T11:35:35.274Z,421.88
2018-03-16T11:36:35.285Z,472.50
2018-03-16T11:37:35.358Z,523.13
2018-03-16T11:38:35.313Z,562.50
2018-03-16T11:39:35.319Z,523.13
2018-03-16T11:40:35.332Z,708.75
2018-03-16T11:41:35.350Z,720.00
2018-03-16T11:42:35.355Z,652.50
2018-03-16T11:43:35.367Z,472.50
2018-03-16T11:44:35.424Z,354.38
2018-03-16T11:45:35.406Z,382.50
2018-03-16T11:46:35.409Z,405.00
2018-03-16T11:47:35.426Z,573.75
2018-03-16T11:48:35.425Z,1861.88
2018-03-16T11:49:35.555Z,911.25
2018-03-16T11:50:35.443Z,343.13
2018-03-16T11:51:35.468Z,607.50
2018-03-16T11:52:35.500Z,376.88
2018-03-16T11:53:35.484Z,832.50
2018-03-16T11:54:35.493Z,461.25
2018-03-16T11:55:35.503Z,1833.75
2018-03-16T11:56:35.516Z,489.38
2018-03-16T11:57:35.547Z,1653.75
2018-03-16T11:58:35.543Z,511.88
2018-03-16T11:59:35.605Z,1434.38
2018-03-16T12:00:35.566Z,1507.50
2018-03-16T12:01:35.585Z,1653.75
2018-03-16T12:02:35.596Z,781.88
2018-03-16T12:03:35.612Z,1816.88
2018-03-16T12:04:35.626Z,568.13
2018-03-16T12:05:35.634Z,1496.25
2018-03-16T12:06:35.649Z,1479.38
2018-03-16T12:07:35.658Z,489.38
2018-03-16T12:08:35.673Z,545.63
2018-03-16T12:09:35.693Z,523.13
2018-03-16T12:10:35.708Z,551.25
2018-03-16T12:11:35.719Z,945.00
2018-03-16T12:12:35.732Z,1873.13
2018-03-16T12:13:35.747Z,528.75
2018-03-16T12:14:35.757Z,427.50
2018-03-16T12:15:35.766Z,348.75
2018-03-16T12:16:35.839Z,438.75
2018-03-16T12:17:35.794Z,399.38
2018-03-16T12:18:35.806Z,253.13
2018-03-16T12:19:35.820Z,247.50
2018-03-16T12:20:35.833Z,241.88
2018-03-16T12:21:35.866Z,270.00
2018-03-16T12:22:35.859Z,315.00
2018-03-16T12:23:35.890Z,315.00
2018-03-16T12:24:35.885Z,360.00
2018-03-16T12:25:35.895Z,410.63
2018-03-16T12:26:35.907Z,405.00
2018-03-16T12:27:35.922Z,596.25
2018-03-16T12:28:49.573Z,405.00
2018-03-16T12:29:35.952Z,562.50
2018-03-16T12:30:35.953Z,444.38
2018-03-16T12:31:35.970Z,472.50
2018-03-16T12:32:35.981Z,478.13
2018-03-16T12:33:35.998Z,444.38
2018-03-16T12:34:36.004Z,483.75
2018-03-16T12:35:36.027Z,1012.50
2018-03-16T12:36:36.027Z,2115.00
2018-03-16T12:37:36.036Z,1372.50
2018-03-16T12:38:36.102Z,455.63
2018-03-16T12:39:36.075Z,399.38
2018-03-16T12:40:36.072Z,365.63
2018-03-16T12:41:36.100Z,337.50
2018-03-16T12:42:36.092Z,354.38
2018-03-16T12:43:36.106Z,433.13
2018-03-16T12:44:36.117Z,309.38
2018-03-16T12:45:36.129Z,230.63
2018-03-16T12:46:36.163Z,168.75
2018-03-16T12:47:36.154Z,146.25
2018-03-16T12:48:36.165Z,135.00
2018-03-16T12:49:36.185Z,129.38
2018-03-16T12:50:36.192Z,140.63
2018-03-16T12:51:42.155Z,168.75